Time;durP1;ratioP1;P1;durP2;ratioP2;P2;SDS_P1;SDS_P2;PMS_P1;PMS_P2;Temp;Humidity;BMP_temperature;BMP_pressure;BME280_temperature;BME280_humidity;BME280_pressure;Samples;Min_cycle;Max_cycle;Signal;HPM_P1;HPM_P2
2022/01/18 00:01:35;;;;;;;25.53;2.77;;;;;;;4.75;100.00;99547.66;5101917;28;21125;-77
2022/01/18 00:04:02;;;;;;;21.13;2.70;;;;;;;4.90;100.00;99547.63;5102080;28;20609;-77
2022/01/18 00:06:28;;;;;;;53.13;4.73;;;;;;;4.95;100.00;99542.59;5107360;28;20592;-77
2022/01/18 00:08:55;;;;;;;41.53;4.30;;;;;;;4.73;100.00;99552.31;5108955;28;20604;-77
2022/01/18 00:11:24;;;;;;;39.20;3.33;;;;;;;4.76;100.00;99553.78;5106150;28;20627;-77
2022/01/18 00:14:09;;;;;;;40.57;4.43;;;;;;;4.74;100.00;99571.66;5106385;28;20597;-77
2022/01/18 00:16:49;;;;;;;40.30;4.10;;;;;;;4.59;100.00;99578.78;5096139;28;20606;-77
2022/01/18 00:19:16;;;;;;;55.33;4.90;;;;;;;4.57;100.00;99575.50;5092893;28;20617;-77
2022/01/18 00:22:04;;;;;;;60.23;4.83;;;;;;;4.55;100.00;99583.63;5093010;28;20676;-77
2022/01/18 00:24:30;;;;;;;60.70;4.70;;;;;;;4.62;100.00;99584.53;5094216;28;20609;-77
2022/01/18 00:26:57;;;;;;;33.57;3.67;;;;;;;4.70;100.00;99588.91;5093457;28;20619;-77
2022/01/18 00:29:27;;;;;;;13.30;2.23;;;;;;;4.75;100.00;99578.59;5093026;28;20618;-78
2022/01/18 00:32:05;;;;;;;51.63;4.40;;;;;;;4.70;100.00;99578.34;5099382;28;21052;-77
2022/01/18 00:34:35;;;;;;;36.20;2.77;;;;;;;4.82;100.00;99580.31;5092813;28;20654;-77
2022/01/18 00:37:24;;;;;;;18.00;3.10;;;;;;;4.95;100.00;99581.50;5091659;28;20619;-77
2022/01/18 00:39:51;;;;;;;24.17;2.97;;;;;;;5.08;100.00;99584.25;5099914;28;20639;-77
2022/01/18 00:42:17;;;;;;;18.63;3.00;;;;;;;5.12;100.00;99583.72;5091543;28;20662;-77
2022/01/18 00:44:46;;;;;;;84.53;7.03;;;;;;;5.23;100.00;99599.09;5092781;28;20593;-78
2022/01/18 00:47:13;;;;;;;35.60;3.73;;;;;;;5.31;100.00;99596.34;5094338;28;20601;-77
2022/01/18 00:49:44;;;;;;;23.77;3.30;;;;;;;5.30;100.00;99604.47;5104275;28;20600;-77
2022/01/18 00:52:23;;;;;;;58.57;4.83;;;;;;;5.26;100.00;99614.63;5102806;28;20703;-77
2022/01/18 00:54:49;;;;;;;18.17;2.33;;;;;;;5.28;100.00;99607.31;5095668;28;20616;-77
2022/01/18 00:57:16;;;;;;;33.80;4.07;;;;;;;5.29;100.00;99619.53;5102976;28;20601;-77
2022/01/18 00:59:44;;;;;;;40.27;4.47;;;;;;;5.44;100.00;99616.88;5104057;28;20612;-77
2022/01/18 01:02:12;;;;;;;40.80;5.40;;;;;;;5.47;100.00;99610.38;5103483;28;20612;-77
2022/01/18 01:04:45;;;;;;;43.70;4.90;;;;;;;5.43;100.00;99605.44;5100487;28;20621;-77
2022/01/18 01:07:11;;;;;;;39.40;5.27;;;;;;;5.36;100.00;99607.19;5102869;28;20623;-77
2022/01/18 01:09:39;;;;;;;21.13;3.97;;;;;;;5.38;100.00;99612.31;5102910;28;20612;-77
2022/01/18 01:12:07;;;;;;;42.73;4.83;;;;;;;5.37;100.00;99608.03;5103279;28;20601;-77
2022/01/18 01:14:34;;;;;;;35.90;4.83;;;;;;;5.41;100.00;99596.88;5099213;28;20601;-77
2022/01/18 01:17:17;;;;;;;45.07;5.93;;;;;;;5.25;100.00;99597.09;5100605;28;20608;-77
2022/01/18 01:34:14;;;;;;;33.50;4.40;;;;;;;5.43;100.00;99600.16;5100849;28;20590;-77
2022/01/18 01:37:10;;;;;;;19.50;2.80;;;;;;;5.46;100.00;99617.50;5099659;28;20597;-77
2022/01/18 01:42:42;;;;;;;33.33;3.53;;;;;;;5.43;100.00;99604.63;5103137;28;21137;-77
2022/01/18 01:45:10;;;;;;;34.63;3.73;;;;;;;5.47;100.00;99591.81;5102689;28;20616;-77
2022/01/18 01:47:38;;;;;;;60.57;5.60;;;;;;;5.51;100.00;99593.09;5100338;28;20628;-77
2022/01/18 01:50:07;;;;;;;51.73;4.73;;;;;;;5.49;100.00;99603.03;5100847;28;20605;-77
2022/01/18 01:52:35;;;;;;;46.20;4.40;;;;;;;5.46;100.00;99583.03;5103111;28;20755;-77
2022/01/18 01:55:02;;;;;;;49.03;5.27;;;;;;;5.43;100.00;99591.38;5094005;28;20606;-77
2022/01/18 01:57:29;;;;;;;69.20;5.33;;;;;;;5.28;100.00;99594.09;5103768;28;20612;-77
2022/01/18 01:59:57;;;;;;;87.63;6.80;;;;;;;5.35;100.00;99608.19;5103231;28;20685;-77
2022/01/18 02:02:25;;;;;;;53.03;4.57;;;;;;;5.14;100.00;99594.94;5099684;28;20628;-77
2022/01/18 02:04:51;;;;;;;41.03;3.43;;;;;;;5.39;100.00;99598.06;5098106;28;20639;-77
2022/01/18 02:07:18;;;;;;;23.07;3.50;;;;;;;5.34;100.00;99589.84;5102733;28;20586;-77
2022/01/18 02:09:46;;;;;;;28.37;3.60;;;;;;;5.37;100.00;99590.31;5103442;28;20636;-77
2022/01/18 02:12:13;;;;;;;61.43;6.50;;;;;;;5.30;100.00;99588.59;5101740;28;20608;-77
2022/01/18 02:14:40;;;;;;;46.53;4.47;;;;;;;5.35;100.00;99605.53;5099368;28;20613;-77
2022/01/18 02:22:37;;;;;;;23.77;3.87;;;;;;;5.38;100.00;99599.06;5103942;28;20617;-77
2022/01/18 02:25:04;;;;;;;45.70;5.67;;;;;;;5.29;100.00;99593.06;5098167;28;20612;-77
2022/01/18 02:27:31;;;;;;;47.43;6.93;;;;;;;5.33;100.00;99594.31;5107267;28;20634;-77
2022/01/18 02:29:58;;;;;;;29.03;5.03;;;;;;;5.28;100.00;99594.09;5107179;28;20639;-77
2022/01/18 02:32:24;;;;;;;36.80;6.63;;;;;;;5.30;100.00;99601.81;5103426;28;20658;-77
2022/01/18 02:34:51;;;;;;;18.33;4.50;;;;;;;5.25;100.00;99590.97;5102227;28;20597;-77
2022/01/18 02:37:18;;;;;;;26.40;4.90;;;;;;;5.28;100.00;99596.72;5102803;28;20597;-77
2022/01/18 02:39:46;;;;;;;42.47;6.73;;;;;;;5.27;100.00;99597.72;5103477;28;20613;-77
2022/01/18 02:42:15;;;;;;;36.83;6.67;;;;;;;5.30;100.00;99604.47;5101116;28;20608;-77
2022/01/18 02:44:43;;;;;;;63.73;7.80;;;;;;;5.31;100.00;99606.94;5098516;28;20727;-77
2022/01/18 02:47:10;;;;;;;39.17;7.40;;;;;;;5.34;100.00;99603.94;5100288;28;20609;-77
2022/01/18 02:49:37;;;;;;;91.73;10.27;;;;;;;5.30;100.00;99600.00;5101304;28;21042;-77
2022/01/18 02:52:04;;;;;;;56.50;7.50;;;;;;;5.34;100.00;99608.41;5102256;28;21171;-77
2022/01/18 02:54:31;;;;;;;51.70;6.87;;;;;;;5.40;100.00;99611.13;5091511;28;20621;-77
2022/01/18 02:57:02;;;;;;;45.00;7.23;;;;;;;5.42;100.00;99614.41;5097632;28;20620;-77
2022/01/18 02:59:35;;;;;;;21.20;5.80;;;;;;;5.44;100.00;99607.09;5099452;28;20606;-77
2022/01/18 03:05:01;;;;;;;57.77;6.37;;;;;;;5.43;100.00;99607.28;5102338;28;20612;-77
2022/01/18 03:07:28;;;;;;;60.50;7.80;;;;;;;5.50;100.00;99604.69;5098478;28;20629;-77
2022/01/18 03:09:54;;;;;;;57.07;7.77;;;;;;;5.44;100.00;99614.22;5097490;28;20613;-77
2022/01/18 03:12:23;;;;;;;56.83;7.47;;;;;;;5.40;100.00;99618.25;5101975;28;20721;-77
2022/01/18 03:14:49;;;;;;;64.83;8.67;;;;;;;5.36;100.00;99615.16;5102250;28;20597;-77
2022/01/18 03:17:16;;;;;;;63.30;7.30;;;;;;;5.41;100.00;99615.44;5100071;28;20620;-77
2022/01/18 03:19:43;;;;;;;67.27;8.57;;;;;;;5.48;100.00;99609.38;5097391;28;20598;-77
2022/01/18 03:22:10;;;;;;;30.60;6.30;;;;;;;5.45;100.00;99613.19;5100222;28;20609;-78
2022/01/18 03:24:49;;;;;;;49.43;6.60;;;;;;;5.46;100.00;99609.53;5097197;28;20605;-77
2022/01/18 03:30:06;;;;;;;51.80;6.77;;;;;;;5.49;100.00;99618.94;5101773;28;20604;-77
2022/01/18 03:32:32;;;;;;;43.80;6.73;;;;;;;5.33;100.00;99620.00;5097540;28;20804;-77
2022/01/18 03:34:59;;;;;;;27.13;5.70;;;;;;;5.33;100.00;99620.81;5097345;28;20609;-77
2022/01/18 03:37:26;;;;;;;27.00;5.60;;;;;;;5.43;100.00;99639.88;5090386;28;20609;-77
2022/01/18 03:39:52;;;;;;;61.50;6.97;;;;;;;5.44;100.00;99644.19;5090148;28;20594;-77
2022/01/18 03:42:41;;;;;;;33.03;6.23;;;;;;;5.56;100.00;99649.00;5097198;28;20623;-77
2022/01/18 03:45:12;;;;;;;56.03;6.87;;;;;;;5.31;100.00;99640.56;5098586;28;20605;-77
2022/01/18 03:47:40;;;;;;;45.93;6.37;;;;;;;5.42;100.00;99640.88;5097639;28;20597;-77
2022/01/18 03:50:08;;;;;;;52.90;5.80;;;;;;;5.39;100.00;99645.75;5098080;28;20609;-77
2022/01/18 03:52:35;;;;;;;44.27;5.77;;;;;;;5.30;100.00;99652.16;5100702;28;20642;-77
2022/01/18 03:55:01;;;;;;;97.37;9.10;;;;;;;5.36;100.00;99646.94;5093057;28;20605;-77
2022/01/18 03:57:28;;;;;;;36.90;5.13;;;;;;;5.48;100.00;99643.81;5100119;28;20624;-77
2022/01/18 03:59:54;;;;;;;42.67;5.00;;;;;;;5.38;100.00;99644.13;5100746;28;20641;-77
2022/01/18 04:02:23;;;;;;;56.20;6.10;;;;;;;5.27;100.00;99653.34;5099080;28;20597;-77
2022/01/18 04:04:49;;;;;;;26.80;4.77;;;;;;;5.26;100.00;99650.91;5099211;28;20667;-77
2022/01/18 04:07:16;;;;;;;27.90;3.40;;;;;;;5.30;100.00;99650.34;5101327;28;20729;-77
2022/01/18 04:09:42;;;;;;;20.43;3.57;;;;;;;5.22;100.00;99639.03;5102608;28;20630;-77
2022/01/18 04:12:11;;;;;;;23.10;2.83;;;;;;;5.17;100.00;99639.59;5101260;28;20626;-77
2022/01/18 04:14:37;;;;;;;51.50;4.43;;;;;;;5.24;100.00;99645.78;5097056;28;20590;-77
2022/01/18 04:17:11;;;;;;;15.30;2.27;;;;;;;5.19;100.00;99639.41;5101376;28;21094;-77
2022/01/18 04:28:01;;;;;;;13.63;2.13;;;;;;;5.04;100.00;99647.41;5104064;28;20611;-77
2022/01/18 04:30:28;;;;;;;29.73;3.97;;;;;;;5.00;100.00;99651.41;5101399;28;20613;-77
2022/01/18 04:32:54;;;;;;;59.00;4.53;;;;;;;4.95;100.00;99648.50;5100788;28;20617;-77
2022/01/18 04:35:22;;;;;;;61.47;4.97;;;;;;;5.06;100.00;99661.25;5105056;28;20828;-76
2022/01/18 04:37:49;;;;;;;44.13;3.90;;;;;;;5.05;100.00;99649.00;5104532;28;20601;-76
2022/01/18 04:40:18;;;;;;;43.53;4.00;;;;;;;5.11;100.00;99653.56;5102550;28;20593;-76
2022/01/18 04:48:28;;;;;;;45.10;3.03;;;;;;;5.13;100.00;99667.47;5094712;28;20612;-77
2022/01/18 04:50:59;;;;;;;29.23;4.57;;;;;;;5.13;100.00;99667.47;5105981;28;21107;-76
2022/01/18 04:53:29;;;;;;;52.57;4.83;;;;;;;5.01;100.00;99671.59;5099443;28;20945;-77
2022/01/18 04:55:57;;;;;;;59.80;5.10;;;;;;;5.11;100.00;99674.75;5103918;28;20612;-76
2022/01/18 04:58:25;;;;;;;49.03;5.00;;;;;;;5.07;100.00;99678.81;5103171;28;20593;-76
2022/01/18 05:00:53;;;;;;;81.67;5.97;;;;;;;5.11;100.00;99684.53;5100119;28;20589;-76
2022/01/18 05:03:20;;;;;;;61.57;4.73;;;;;;;5.12;100.00;99680.88;5102528;28;20616;-77
2022/01/18 05:05:49;;;;;;;37.40;4.00;;;;;;;5.06;100.00;99671.84;5103095;28;20673;-77
2022/01/18 05:08:18;;;;;;;28.30;2.50;;;;;;;5.00;100.00;99674.41;5103351;28;20616;-77
2022/01/18 05:10:50;;;;;;;70.20;5.00;;;;;;;4.97;100.00;99675.59;5101967;28;20659;-76
2022/01/18 05:13:31;;;;;;;51.17;4.23;;;;;;;4.83;100.00;99676.41;5104392;28;20613;-77
2022/01/18 05:16:08;;;;;;;34.83;3.37;;;;;;;4.90;100.00;99672.03;5105040;28;20612;-77
2022/01/18 05:21:24;;;;;;;35.00;4.00;;;;;;;4.94;100.00;99677.78;5103312;28;20613;-77
2022/01/18 05:23:51;;;;;;;40.03;3.97;;;;;;;5.02;100.00;99683.81;5099441;28;20635;-76
2022/01/18 05:26:18;;;;;;;44.23;3.67;;;;;;;5.09;100.00;99689.19;5099591;28;20984;-76
2022/01/18 05:28:45;;;;;;;52.50;4.93;;;;;;;5.13;100.00;99682.53;5101027;28;20624;-77
2022/01/18 05:31:12;;;;;;;37.90;3.37;;;;;;;5.14;100.00;99687.63;5101634;28;20628;-77
2022/01/18 05:33:40;;;;;;;42.90;3.67;;;;;;;5.19;100.00;99695.84;5102469;28;20609;-77
2022/01/18 05:36:07;;;;;;;48.50;4.30;;;;;;;5.22;100.00;99698.13;5101630;28;20613;-77
2022/01/18 05:38:35;;;;;;;73.60;5.40;;;;;;;5.22;100.00;99695.50;5099178;28;20664;-77
2022/01/18 05:41:03;;;;;;;28.77;2.73;;;;;;;5.18;100.00;99702.16;5099506;28;20609;-77
2022/01/18 05:43:30;;;;;;;11.10;2.10;;;;;;;5.20;100.00;99713.38;5103031;28;20593;-77
2022/01/18 05:45:56;;;;;;;62.50;5.37;;;;;;;5.23;100.00;99709.56;5103986;28;20588;-77
2022/01/18 05:48:24;;;;;;;74.80;5.70;;;;;;;5.25;100.00;99708.38;5099415;28;20598;-77
2022/01/18 05:50:51;;;;;;;49.73;4.63;;;;;;;5.24;100.00;99719.13;5100824;28;20617;-77
2022/01/18 05:53:18;;;;;;;66.43;5.33;;;;;;;5.30;100.00;99721.03;5102223;28;20927;-77
2022/01/18 05:55:45;;;;;;;53.97;6.00;;;;;;;5.24;100.00;99725.25;5097057;28;20596;-77
2022/01/18 05:58:12;;;;;;;36.17;3.33;;;;;;;5.27;100.00;99730.19;5102809;28;20600;-77
2022/01/18 06:00:41;;;;;;;31.97;4.10;;;;;;;5.22;100.00;99732.56;5099369;28;20644;-77
2022/01/18 06:03:14;;;;;;;23.50;3.50;;;;;;;5.13;100.00;99743.44;5099950;28;20631;-77
2022/01/18 06:08:25;;;;;;;37.77;4.33;;;;;;;5.15;100.00;99755.50;5099745;28;20613;-77
2022/01/18 06:10:51;;;;;;;50.07;4.63;;;;;;;5.22;100.00;99750.28;5099718;28;20696;-77
2022/01/18 06:13:20;;;;;;;31.83;4.07;;;;;;;5.14;100.00;99753.84;5102352;28;20614;-76
2022/01/18 06:15:46;;;;;;;70.57;6.73;;;;;;;5.04;100.00;99757.78;5103114;28;20619;-77
2022/01/18 06:18:14;;;;;;;28.27;2.40;;;;;;;5.12;100.00;99755.84;5099755;28;20605;-76
2022/01/18 06:20:43;;;;;;;41.97;4.47;;;;;;;5.13;100.00;99754.03;5098051;28;20605;-77
2022/01/18 06:23:09;;;;;;;30.73;3.50;;;;;;;5.12;100.00;99771.75;5101883;28;20608;-77
2022/01/18 06:25:36;;;;;;;46.43;4.30;;;;;;;5.09;100.00;99764.16;5095605;28;20609;-77
2022/01/18 06:28:03;;;;;;;42.70;4.37;;;;;;;5.10;100.00;99776.41;5103014;28;20612;-77
2022/01/18 06:30:31;;;;;;;50.07;4.53;;;;;;;5.16;100.00;99777.50;5098943;28;20632;-76
2022/01/18 06:32:58;;;;;;;34.67;3.87;;;;;;;5.06;100.00;99771.66;5099570;28;20617;-77
2022/01/18 06:35:25;;;;;;;47.33;4.80;;;;;;;5.08;100.00;99781.06;5103087;28;20577;-77
2022/01/18 06:37:52;;;;;;;35.67;4.17;;;;;;;5.15;100.00;99779.34;5101823;28;20636;-77
2022/01/18 06:40:18;;;;;;;34.30;3.43;;;;;;;5.08;100.00;99791.66;5100634;28;20600;-77
2022/01/18 06:42:45;;;;;;;20.73;3.17;;;;;;;5.09;100.00;99781.88;5098772;28;20610;-77
2022/01/18 06:45:12;;;;;;;26.67;3.53;;;;;;;4.95;100.00;99775.59;5101097;28;20955;-76
2022/01/18 06:47:40;;;;;;;31.00;4.47;;;;;;;4.97;100.00;99780.69;5102691;28;20612;-77
2022/01/18 06:50:10;;;;;;;36.60;4.63;;;;;;;5.05;100.00;99785.88;5100565;28;20646;-77
2022/01/18 06:52:37;;;;;;;32.37;3.60;;;;;;;5.05;100.00;99791.19;5098892;28;21032;-77
2022/01/18 06:55:04;;;;;;;45.17;5.10;;;;;;;5.09;100.00;99784.53;5093144;28;20613;-77
2022/01/18 06:57:31;;;;;;;56.07;5.07;;;;;;;5.04;100.00;99800.16;5101980;28;20589;-77
2022/01/18 06:59:58;;;;;;;42.50;5.30;;;;;;;4.94;100.00;99802.22;5103097;28;20612;-77
2022/01/18 07:02:25;;;;;;;45.27;5.40;;;;;;;5.02;100.00;99800.31;5099666;28;20609;-76
2022/01/18 07:04:53;;;;;;;49.63;5.10;;;;;;;4.98;100.00;99804.34;5099000;28;20625;-77
2022/01/18 07:07:20;;;;;;;42.13;4.90;;;;;;;5.03;100.00;99801.97;5103351;28;20594;-77
2022/01/18 07:09:47;;;;;;;72.90;6.33;;;;;;;5.06;100.00;99804.25;5105034;28;20613;-77
2022/01/18 07:12:15;;;;;;;30.73;4.37;;;;;;;4.87;100.00;99810.91;5104281;28;20612;-77
2022/01/18 07:14:42;;;;;;;41.57;5.47;;;;;;;4.99;100.00;99808.63;5102191;28;20602;-77
2022/01/18 07:17:09;;;;;;;54.60;5.73;;;;;;;4.77;100.00;99809.50;5101467;28;20605;-77
2022/01/18 07:19:36;;;;;;;31.93;3.87;;;;;;;4.92;100.00;99804.25;5102139;28;20642;-76
2022/01/18 07:22:05;;;;;;;32.17;3.93;;;;;;;4.93;100.00;99803.22;5101125;28;20627;-77
2022/01/18 07:24:40;;;;;;;33.50;3.77;;;;;;;4.92;100.00;99806.91;5091581;28;20605;-77
2022/01/18 07:27:09;;;;;;;39.87;4.67;;;;;;;5.10;100.00;99804.72;5100027;28;20601;-76
2022/01/18 07:29:37;;;;;;;44.57;4.23;;;;;;;5.17;100.00;99817.03;5101148;28;20596;-77
2022/01/18 07:32:05;;;;;;;21.63;3.83;;;;;;;5.22;100.00;99819.16;5100683;28;20609;-77
2022/01/18 07:34:34;;;;;;;34.73;5.27;;;;;;;5.14;100.00;99822.69;5097594;28;20609;-77
2022/01/18 07:37:02;;;;;;;21.30;3.43;;;;;;;5.18;100.00;99818.69;5097615;28;20618;-77
2022/01/18 07:39:30;;;;;;;31.33;3.83;;;;;;;5.19;100.00;99825.66;5097879;28;20605;-76
2022/01/18 07:41:56;;;;;;;45.80;4.60;;;;;;;5.24;100.00;99828.56;5097421;28;20606;-77
2022/01/18 07:44:23;;;;;;;75.27;6.53;;;;;;;5.21;100.00;99828.09;5100985;28;20608;-78
2022/01/18 07:46:50;;;;;;;31.03;3.60;;;;;;;5.26;100.00;99831.84;5102820;28;20627;-77
2022/01/18 07:49:16;;;;;;;27.53;3.30;;;;;;;5.33;100.00;99843.38;5100684;28;20619;-77
2022/01/18 07:51:43;;;;;;;73.67;6.73;;;;;;;5.41;100.00;99840.66;5100635;28;20608;-77
2022/01/18 07:54:10;;;;;;;49.10;4.73;;;;;;;5.49;100.00;99839.72;5101930;28;21182;-77
2022/01/18 07:56:41;;;;;;;56.57;5.53;;;;;;;5.44;100.00;99855.34;5102318;28;20901;-77
2022/01/18 07:59:08;;;;;;;46.23;4.77;;;;;;;5.33;100.00;99856.63;5102478;28;20647;-77
2022/01/18 08:01:35;;;;;;;54.80;5.10;;;;;;;5.33;100.00;99869.88;5104771;28;21280;-77
2022/01/18 08:04:02;;;;;;;46.83;3.93;;;;;;;5.13;100.00;99873.22;5105358;28;20677;-78
2022/01/18 08:06:28;;;;;;;24.27;2.90;;;;;;;5.21;100.00;99867.84;5101068;28;20614;-77
2022/01/18 08:08:55;;;;;;;68.73;5.40;;;;;;;5.08;100.00;99879.03;5100333;28;20605;-77
2022/01/18 08:11:22;;;;;;;37.10;4.27;;;;;;;5.15;100.00;99877.34;5103732;28;20631;-77
2022/01/18 08:13:50;;;;;;;43.23;4.50;;;;;;;5.25;100.00;99871.78;5105241;28;20589;-77
2022/01/18 08:16:34;;;;;;;48.87;3.87;;;;;;;5.33;100.00;99872.50;5103807;28;20601;-77
2022/01/18 08:19:05;;;;;;;27.33;4.10;;;;;;;5.30;100.00;99866.75;5101544;28;20614;-77
2022/01/18 08:21:32;;;;;;;54.63;5.43;;;;;;;5.26;100.00;99876.88;5102168;28;20659;-76
2022/01/18 08:23:58;;;;;;;43.17;5.27;;;;;;;5.00;100.00;99875.66;5100946;28;20601;-77
2022/01/18 08:26:25;;;;;;;31.67;4.33;;;;;;;4.92;100.00;99881.84;5100788;28;20655;-77
2022/01/18 08:28:53;;;;;;;21.63;2.77;;;;;;;4.88;100.00;99875.28;5102106;28;20650;-77
2022/01/18 08:31:19;;;;;;;25.70;3.50;;;;;;;4.80;100.00;99888.56;5104587;28;20616;-77
2022/01/18 08:33:46;;;;;;;33.40;3.50;;;;;;;4.78;100.00;99883.44;5105045;28;20593;-77
2022/01/18 08:36:13;;;;;;;18.93;3.03;;;;;;;4.83;100.00;99882.91;5103651;28;20956;-76
2022/01/18 08:38:40;;;;;;;31.13;3.83;;;;;;;4.75;100.00;99890.91;5100497;28;20605;-77
2022/01/18 08:41:08;;;;;;;43.17;4.33;;;;;;;4.76;100.00;99887.28;5102539;28;20617;-77
2022/01/18 08:43:37;;;;;;;20.43;2.47;;;;;;;4.87;100.00;99890.31;5104187;28;20600;-77
2022/01/18 08:46:06;;;;;;;17.30;2.10;;;;;;;5.01;100.00;99886.09;5105137;28;20601;-76
2022/01/18 08:48:34;;;;;;;40.70;4.43;;;;;;;5.00;100.00;99884.44;5102473;28;20620;-77
2022/01/18 08:51:00;;;;;;;39.00;4.30;;;;;;;4.99;100.00;99880.13;5103690;28;20605;-77
2022/01/18 08:53:27;;;;;;;20.40;3.23;;;;;;;5.02;100.00;99882.41;5103860;28;21009;-77
2022/01/18 08:55:54;;;;;;;52.07;3.90;;;;;;;5.21;100.00;99866.00;5105493;28;20598;-77
2022/01/18 08:58:22;;;;;;;36.23;3.50;;;;;;;5.27;100.00;99875.06;5106044;28;20611;-77
2022/01/18 09:00:49;;;;;;;48.07;4.20;;;;;;;5.39;100.00;99877.09;5103912;28;20604;-77
2022/01/18 09:03:17;;;;;;;16.50;1.93;;;;;;;5.52;100.00;99870.31;5102358;28;20604;-77
2022/01/18 09:05:45;;;;;;;41.67;3.57;;;;;;;5.62;100.00;99877.00;5099052;28;21272;-77
2022/01/18 09:08:13;;;;;;;13.90;1.83;;;;;;;5.68;100.00;99883.41;5101543;28;20617;-77
2022/01/18 09:10:40;;;;;;;15.07;2.50;;;;;;;5.71;100.00;99881.22;5104110;28;20601;-77
2022/01/18 09:13:07;;;;;;;28.37;3.20;;;;;;;5.70;100.00;99884.84;5104354;28;20597;-78
2022/01/18 09:15:34;;;;;;;25.53;2.73;;;;;;;5.62;100.00;99884.13;5100710;28;20666;-77
2022/01/18 09:18:00;;;;;;;49.00;5.10;;;;;;;5.63;100.00;99894.53;5101522;28;20602;-77
2022/01/18 09:20:30;;;;;;;23.40;3.27;;;;;;;5.80;100.00;99900.47;5100779;28;20617;-77
2022/01/18 09:22:57;;;;;;;71.53;5.60;;;;;;;5.73;100.00;99902.22;5101236;28;20610;-78
2022/01/18 09:25:26;;;;;;;64.57;6.53;;;;;;;5.68;100.00;99902.78;5095345;28;20608;-77
2022/01/18 09:27:54;;;;;;;79.83;6.90;;;;;;;5.49;100.00;99910.44;5105831;28;20603;-77
2022/01/18 09:30:21;;;;;;;33.23;3.10;;;;;;;5.36;100.00;99909.25;5101792;28;20611;-77
2022/01/18 09:32:49;;;;;;;56.70;4.67;;;;;;;5.47;100.00;99912.47;5101866;28;20605;-77
2022/01/18 09:35:16;;;;;;;24.83;2.93;;;;;;;5.51;100.00;99913.75;5101664;28;20598;-77
2022/01/18 09:37:45;;;;;;;62.53;5.27;;;;;;;5.59;100.00;99922.44;5102806;28;20593;-77
2022/01/18 09:40:14;;;;;;;47.63;4.10;;;;;;;5.80;100.00;99924.34;5102131;28;20589;-77
2022/01/18 09:42:43;;;;;;;53.47;4.70;;;;;;;5.75;100.00;99916.97;5100303;28;20617;-77
2022/01/18 09:45:14;;;;;;;14.50;2.50;;;;;;;5.56;100.00;99900.75;5104884;28;20613;-77
2022/01/18 09:47:45;;;;;;;35.13;3.03;;;;;;;5.43;100.00;99912.81;5105873;28;20601;-77
2022/01/18 09:50:15;;;;;;;21.20;3.27;;;;;;;5.60;100.00;99907.34;5103393;28;20616;-77
2022/01/18 09:52:47;;;;;;;31.70;3.63;;;;;;;5.56;100.00;99911.38;5100968;28;20624;-77
2022/01/18 09:55:14;;;;;;;17.90;3.00;;;;;;;5.53;100.00;99911.72;5103648;28;20624;-77
2022/01/18 09:57:41;;;;;;;19.37;2.00;;;;;;;5.90;100.00;99912.50;5103942;28;20593;-77
2022/01/18 10:00:09;;;;;;;28.93;2.80;;;;;;;5.63;100.00;99907.00;5101523;28;20593;-77
2022/01/18 10:02:36;;;;;;;22.17;2.43;;;;;;;5.45;100.00;99905.50;5099001;28;20618;-77
2022/01/18 10:05:18;;;;;;;41.53;3.17;;;;;;;5.65;100.00;99902.31;5100328;28;20609;-77
2022/01/18 10:07:54;;;;;;;68.13;5.87;;;;;;;5.73;100.00;99903.03;5101918;28;20608;-77
2022/01/18 10:10:21;;;;;;;17.97;2.33;;;;;;;5.92;100.00;99901.69;5100438;28;20590;-77
2022/01/18 10:12:56;;;;;;;42.67;3.77;;;;;;;5.69;100.00;99900.97;5098231;28;20618;-77
2022/01/18 10:15:22;;;;;;;23.73;2.80;;;;;;;5.64;100.00;99887.41;5102566;28;20600;-77
2022/01/18 10:17:49;;;;;;;30.07;3.30;;;;;;;5.76;100.00;99893.91;5103860;28;20607;-77
2022/01/18 10:20:19;;;;;;;42.33;4.17;;;;;;;5.50;100.00;99885.59;5101870;28;20615;-77
2022/01/18 10:22:49;;;;;;;43.13;3.97;;;;;;;5.82;100.00;99890.50;5098970;28;20612;-77
2022/01/18 10:25:18;;;;;;;48.63;4.47;;;;;;;5.87;100.00;99880.22;5094855;28;20643;-77
2022/01/18 10:27:47;;;;;;;49.13;4.90;;;;;;;5.94;100.00;99873.97;5102790;28;20588;-77
2022/01/18 10:30:20;;;;;;;56.13;4.83;;;;;;;5.88;100.00;99889.84;5101369;28;20647;-77
2022/01/18 10:33:01;;;;;;;40.13;3.27;;;;;;;5.36;100.00;99880.09;5098231;28;20605;-77
2022/01/18 10:35:28;;;;;;;36.97;3.23;;;;;;;5.43;100.00;99881.03;5091057;28;20666;-78
2022/01/18 10:37:56;;;;;;;37.23;3.40;;;;;;;5.84;100.00;99880.56;5098777;28;20593;-78
2022/01/18 10:40:26;;;;;;;32.10;3.63;;;;;;;5.79;100.00;99881.09;5091221;28;20609;-77
2022/01/18 10:42:54;;;;;;;24.67;2.63;;;;;;;6.07;100.00;99872.50;5089896;28;20598;-77
2022/01/18 10:45:27;;;;;;;63.03;4.53;;;;;;;5.54;100.00;99870.97;5092673;28;20613;-77
2022/01/18 10:47:57;;;;;;;45.77;3.70;;;;;;;5.54;100.00;99857.72;5101110;28;20670;-78
2022/01/18 10:50:26;;;;;;;40.90;3.63;;;;;;;5.79;100.00;99872.31;5097656;28;20625;-77
2022/01/18 10:52:53;;;;;;;75.60;5.63;;;;;;;5.66;100.00;99864.22;5099647;28;20613;-78
2022/01/18 10:55:23;;;;;;;24.10;2.90;;;;;;;5.50;100.00;99859.09;5093045;28;20609;-78
2022/01/18 10:57:51;;;;;;;34.73;3.67;;;;;;;5.58;100.00;99859.00;5101840;28;20609;-77
2022/01/18 11:00:21;;;;;;;32.07;3.27;;;;;;;5.77;100.00;99863.72;5100441;28;20597;-77
2022/01/18 11:02:51;;;;;;;47.97;4.63;;;;;;;5.45;100.00;99860.44;5099356;28;20601;-78
2022/01/18 11:05:20;;;;;;;44.80;4.27;;;;;;;5.46;100.00;99855.97;5101390;28;20626;-78
2022/01/18 11:07:49;;;;;;;34.27;3.17;;;;;;;5.82;100.00;99859.53;5102174;28;20647;-78
2022/01/18 11:10:18;;;;;;;58.37;5.23;;;;;;;6.02;100.00;99865.09;5099310;28;20624;-77
2022/01/18 11:12:51;;;;;;;50.33;3.77;;;;;;;6.14;100.00;99857.47;5099154;28;20606;-78
2022/01/18 11:15:21;;;;;;;18.30;1.90;;;;;;;5.74;100.00;99850.84;5101512;28;20612;-77
2022/01/18 11:17:57;;;;;;;78.87;5.77;;;;;;;5.51;100.00;99839.53;5102159;28;20617;-78
2022/01/18 11:20:24;;;;;;;89.30;6.43;;;;;;;5.82;100.00;99848.91;5098700;28;20613;-78
2022/01/18 11:22:52;;;;;;;34.50;3.93;;;;;;;5.84;100.00;99852.22;5098946;28;20610;-77
2022/01/18 11:25:21;;;;;;;54.70;4.73;;;;;;;6.04;100.00;99846.34;5094689;28;20660;-77
2022/01/18 11:27:52;;;;;;;34.03;3.63;;;;;;;6.38;100.00;99850.00;5104717;28;20616;-77
2022/01/18 11:30:20;;;;;;;31.77;2.90;;;;;;;6.63;100.00;99842.47;5102471;28;20592;-77
2022/01/18 11:32:48;;;;;;;55.40;4.90;;;;;;;6.71;100.00;99844.19;5102028;28;20658;-78
2022/01/18 11:35:19;;;;;;;35.53;4.07;;;;;;;6.45;100.00;99844.75;5104233;28;20605;-77
2022/01/18 11:38:00;;;;;;;58.60;5.30;;;;;;;6.60;100.00;99836.72;5105817;28;20593;-78
2022/01/18 11:40:28;;;;;;;77.83;6.80;;;;;;;6.63;100.00;99837.16;5101721;28;20586;-77
2022/01/18 11:42:58;;;;;;;39.10;4.23;;;;;;;6.10;100.00;99837.63;5100767;28;20606;-77
2022/01/18 11:45:39;;;;;;;49.40;5.63;;;;;;;6.68;100.00;99833.94;5103484;28;20600;-77
2022/01/18 11:48:11;;;;;;;49.00;4.43;;;;;;;6.56;100.00;99840.78;5104558;28;20966;-77
2022/01/18 11:50:41;;;;;;;61.83;6.20;;;;;;;6.47;100.00;99832.94;5101099;28;20666;-77
2022/01/18 11:53:23;;;;;;;58.80;5.93;;;;;;;6.43;100.00;99826.38;5104291;28;20639;-77
2022/01/18 11:55:49;;;;;;;83.47;7.00;;;;;;;6.74;100.00;99819.91;5100825;28;20621;-77
2022/01/18 11:58:18;;;;;;;45.83;3.90;;;;;;;6.73;100.00;99831.53;5103399;28;20596;-77
2022/01/18 12:00:51;;;;;;;39.33;4.00;;;;;;;6.79;100.00;99825.44;5106732;28;20616;-77
2022/01/18 12:03:22;;;;;;;46.50;4.50;;;;;;;6.69;100.00;99831.09;5101594;28;20707;-77
2022/01/18 12:05:50;;;;;;;55.13;4.90;;;;;;;6.62;100.00;99829.41;5101733;28;20613;-77
2022/01/18 12:08:35;;;;;;;44.77;4.20;;;;;;;6.70;100.00;99822.13;5102404;28;20609;-77
2022/01/18 12:11:04;;;;;;;47.37;4.43;;;;;;;6.65;100.00;99813.09;5103958;28;20677;-77
2022/01/18 12:13:35;;;;;;;51.30;4.33;;;;;;;6.39;100.00;99825.09;5101532;28;20609;-77
2022/01/18 12:16:09;;;;;;;51.17;4.60;;;;;;;6.27;100.00;99823.13;5100319;28;20601;-77
2022/01/18 12:18:35;;;;;;;43.03;4.00;;;;;;;6.41;100.00;99822.25;5104894;28;20620;-77
2022/01/18 12:21:05;;;;;;;31.63;3.13;;;;;;;6.43;100.00;99821.06;5103733;28;20611;-77